DLA3WF EDDM-LIPZ
Flight info
| Callsign | DLA3WF |
|---|---|
| Flight time | 0h 45m |
| Altitude | 37000 |
| Route | TURBU7Q TURBU Y107 TOBSO DCT BAKOR DCT NAXAV/N0335F210 DCT ADOSA/N0321F190 L612 ALBET |
| Aircraft | E195/M-SDE2E3FGIRWY/LB1 |
Departure
| Time | 2026-05-06 15:14 |
|---|---|
| Airport | Munich Airport (EDDM) |
Arrival
| Time | 2026-05-06 15:59 |
|---|---|
| Airport | Venice Marco Polo Airport (LIPZ) |
| Time | Latitude | Longitude | Altitude | Speed | Heading |
|---|---|---|---|---|---|
| 2026-05-06 14:46 | 48.35246 | 11.79777 | 1484 ft | 0 kts | 83° |
| 2026-05-06 14:59 | 48.35243 | 11.79746 | 1470 ft | 4 kts | 81° |
| 2026-05-06 15:00 | 48.35238 | 11.79706 | 1474 ft | 4 kts | 76° |
| 2026-05-06 15:00 | 48.35230 | 11.79667 | 1476 ft | 4 kts | 64° |
| 2026-05-06 15:00 | 48.35216 | 11.79637 | 1479 ft | 4 kts | 18° |
| 2026-05-06 15:00 | 48.35208 | 11.79633 | 1472 ft | 2 kts | 353° |
| 2026-05-06 15:03 | 48.35220 | 11.79624 | 1478 ft | 2 kts | 321° |
| 2026-05-06 15:03 | 48.35223 | 11.79592 | 1468 ft | 4 kts | 266° |
| 2026-05-06 15:03 | 48.35218 | 11.79526 | 1484 ft | 5 kts | 262° |
| 2026-05-06 15:03 | 48.35192 | 11.79499 | 1484 ft | 5 kts | 174° |
| 2026-05-06 15:04 | 48.35139 | 11.79508 | 1484 ft | 10 kts | 176° |
| 2026-05-06 15:04 | 48.35049 | 11.79524 | 1484 ft | 16 kts | 174° |
| 2026-05-06 15:04 | 48.34923 | 11.79546 | 1484 ft | 19 kts | 174° |
| 2026-05-06 15:04 | 48.34908 | 11.79548 | 1472 ft | 0 kts | 173° |
| 2026-05-06 15:05 | 48.34907 | 11.79548 | 1472 ft | 2 kts | 173° |
| 2026-05-06 15:05 | 48.34862 | 11.79557 | 1476 ft | 11 kts | 171° |
| 2026-05-06 15:05 | 48.34799 | 11.79532 | 1476 ft | 9 kts | 248° |
| 2026-05-06 15:06 | 48.34784 | 11.79453 | 1477 ft | 8 kts | 259° |
| 2026-05-06 15:06 | 48.34776 | 11.79354 | 1484 ft | 11 kts | 263° |
| 2026-05-06 15:06 | 48.34764 | 11.79207 | 1482 ft | 17 kts | 263° |
| 2026-05-06 15:06 | 48.34749 | 11.79014 | 1484 ft | 20 kts | 264° |
| 2026-05-06 15:07 | 48.34732 | 11.78802 | 1484 ft | 21 kts | 263° |
| 2026-05-06 15:07 | 48.34716 | 11.78582 | 1484 ft | 21 kts | 263° |
| 2026-05-06 15:07 | 48.34700 | 11.78365 | 1481 ft | 21 kts | 264° |
| 2026-05-06 15:07 | 48.34683 | 11.78149 | 1484 ft | 21 kts | 263° |
| 2026-05-06 15:08 | 48.34666 | 11.77934 | 1474 ft | 21 kts | 264° |
| 2026-05-06 15:08 | 48.34650 | 11.77721 | 1475 ft | 21 kts | 264° |
| 2026-05-06 15:08 | 48.34633 | 11.77509 | 1484 ft | 20 kts | 263° |
| 2026-05-06 15:08 | 48.34618 | 11.77297 | 1481 ft | 20 kts | 263° |
| 2026-05-06 15:09 | 48.34601 | 11.77087 | 1484 ft | 20 kts | 263° |
| 2026-05-06 15:09 | 48.34584 | 11.76872 | 1478 ft | 21 kts | 263° |
| 2026-05-06 15:09 | 48.34567 | 11.76653 | 1484 ft | 21 kts | 263° |
| 2026-05-06 15:09 | 48.34550 | 11.76429 | 1478 ft | 22 kts | 264° |
| 2026-05-06 15:10 | 48.34532 | 11.76200 | 1484 ft | 22 kts | 263° |
| 2026-05-06 15:10 | 48.34515 | 11.75976 | 1484 ft | 22 kts | 263° |
| 2026-05-06 15:10 | 48.34491 | 11.75791 | 1474 ft | 12 kts | 223° |
| 2026-05-06 15:10 | 48.34416 | 11.75789 | 1478 ft | 12 kts | 166° |
| 2026-05-06 15:11 | 48.34354 | 11.75879 | 1477 ft | 14 kts | 116° |
| 2026-05-06 15:11 | 48.34311 | 11.76026 | 1482 ft | 17 kts | 113° |
| 2026-05-06 15:11 | 48.34300 | 11.76066 | 1474 ft | 0 kts | 112° |
| 2026-05-06 15:12 | 48.34296 | 11.76079 | 1484 ft | 3 kts | 112° |
| 2026-05-06 15:12 | 48.34279 | 11.76138 | 1484 ft | 10 kts | 113° |
| 2026-05-06 15:12 | 48.34239 | 11.76277 | 1484 ft | 19 kts | 113° |
| 2026-05-06 15:13 | 48.34188 | 11.76478 | 1482 ft | 21 kts | 104° |
| 2026-05-06 15:13 | 48.34195 | 11.76746 | 1475 ft | 48 kts | 83° |
| 2026-05-06 15:13 | 48.34259 | 11.77616 | 1479 ft | 119 kts | 84° |
| 2026-05-06 15:13 | 48.34391 | 11.79164 | 1511 ft | 175 kts | 86° |
| 2026-05-06 15:14 | 48.34468 | 11.81058 | 2295 ft | 184 kts | 89° |
| 2026-05-06 15:14 | 48.34564 | 11.82936 | 3314 ft | 187 kts | 79° |
| 2026-05-06 15:14 | 48.34864 | 11.84936 | 3809 ft | 204 kts | 77° |
| 2026-05-06 15:14 | 48.35181 | 11.87069 | 4387 ft | 217 kts | 78° |
| 2026-05-06 15:15 | 48.35472 | 11.89395 | 4898 ft | 236 kts | 83° |
| 2026-05-06 15:15 | 48.35550 | 11.91953 | 5436 ft | 253 kts | 93° |
| 2026-05-06 15:15 | 48.35056 | 11.94536 | 6012 ft | 266 kts | 122° |
| 2026-05-06 15:15 | 48.33955 | 11.96801 | 6711 ft | 274 kts | 130° |
| 2026-05-06 15:16 | 48.32645 | 11.98873 | 6859 ft | 273 kts | 141° |
| 2026-05-06 15:16 | 48.31095 | 12.00518 | 7479 ft | 272 kts | 157° |
| 2026-05-06 15:16 | 48.29264 | 12.01151 | 8323 ft | 271 kts | 176° |
| 2026-05-06 15:16 | 48.27378 | 12.01291 | 9172 ft | 272 kts | 180° |
| 2026-05-06 15:17 | 48.25487 | 12.01278 | 9984 ft | 273 kts | 183° |
| 2026-05-06 15:17 | 48.23534 | 12.01204 | 10432 ft | 288 kts | 184° |
| 2026-05-06 15:17 | 48.21482 | 12.01058 | 10904 ft | 299 kts | 187° |
| 2026-05-06 15:17 | 48.19410 | 12.00673 | 11627 ft | 301 kts | 189° |
| 2026-05-06 15:18 | 48.17318 | 12.00259 | 12342 ft | 305 kts | 190° |
| 2026-05-06 15:18 | 48.15204 | 11.99817 | 13061 ft | 308 kts | 190° |
| 2026-05-06 15:18 | 48.13070 | 11.99370 | 13747 ft | 311 kts | 190° |
| 2026-05-06 15:18 | 48.10914 | 11.98919 | 14407 ft | 313 kts | 190° |
| 2026-05-06 15:19 | 48.08753 | 11.98470 | 15092 ft | 314 kts | 190° |
| 2026-05-06 15:19 | 48.06586 | 11.98015 | 15781 ft | 316 kts | 190° |
| 2026-05-06 15:19 | 48.04434 | 11.97571 | 16445 ft | 317 kts | 190° |
| 2026-05-06 15:19 | 48.02209 | 11.97108 | 17139 ft | 319 kts | 191° |
| 2026-05-06 15:20 | 48.00034 | 11.96657 | 17816 ft | 321 kts | 191° |
| 2026-05-06 15:20 | 47.97815 | 11.96197 | 18456 ft | 323 kts | 191° |
| 2026-05-06 15:20 | 47.95587 | 11.95736 | 19088 ft | 324 kts | 191° |
| 2026-05-06 15:20 | 47.93340 | 11.95293 | 19741 ft | 326 kts | 190° |
| 2026-05-06 15:21 | 47.91073 | 11.94925 | 20364 ft | 330 kts | 187° |
| 2026-05-06 15:21 | 47.88765 | 11.94843 | 20950 ft | 333 kts | 185° |
| 2026-05-06 15:21 | 47.86442 | 11.94768 | 21502 ft | 336 kts | 185° |
| 2026-05-06 15:21 | 47.84096 | 11.94726 | 22053 ft | 338 kts | 185° |
| 2026-05-06 15:22 | 47.81733 | 11.94684 | 22569 ft | 341 kts | 185° |
| 2026-05-06 15:22 | 47.79350 | 11.94642 | 23094 ft | 344 kts | 185° |
| 2026-05-06 15:22 | 47.76949 | 11.94594 | 23572 ft | 346 kts | 185° |
| 2026-05-06 15:22 | 47.74532 | 11.94549 | 24028 ft | 348 kts | 185° |
| 2026-05-06 15:23 | 47.72102 | 11.94510 | 24513 ft | 350 kts | 186° |
| 2026-05-06 15:23 | 47.69655 | 11.94464 | 25013 ft | 352 kts | 186° |
| 2026-05-06 15:23 | 47.67208 | 11.94421 | 25607 ft | 353 kts | 186° |
| 2026-05-06 15:23 | 47.64729 | 11.94382 | 25993 ft | 358 kts | 186° |
| 2026-05-06 15:24 | 47.62225 | 11.94339 | 26445 ft | 359 kts | 186° |
| 2026-05-06 15:24 | 47.59747 | 11.94297 | 26745 ft | 363 kts | 186° |
| 2026-05-06 15:24 | 47.57211 | 11.94249 | 27155 ft | 364 kts | 186° |
| 2026-05-06 15:24 | 47.54673 | 11.94206 | 27598 ft | 365 kts | 186° |
| 2026-05-06 15:25 | 47.52120 | 11.94160 | 27972 ft | 367 kts | 186° |
| 2026-05-06 15:25 | 47.49561 | 11.94118 | 28427 ft | 368 kts | 187° |
| 2026-05-06 15:25 | 47.46989 | 11.94071 | 28849 ft | 370 kts | 187° |
| 2026-05-06 15:25 | 47.44415 | 11.93982 | 29259 ft | 371 kts | 188° |
| 2026-05-06 15:26 | 47.41844 | 11.93711 | 29624 ft | 369 kts | 193° |
| 2026-05-06 15:26 | 47.39317 | 11.93242 | 29860 ft | 374 kts | 193° |
| 2026-05-06 15:26 | 47.36705 | 11.92738 | 29962 ft | 379 kts | 193° |
| 2026-05-06 15:26 | 47.34097 | 11.92213 | 30337 ft | 378 kts | 193° |
| 2026-05-06 15:27 | 47.31493 | 11.91694 | 30744 ft | 376 kts | 193° |
| 2026-05-06 15:27 | 47.28906 | 11.91175 | 31137 ft | 375 kts | 193° |
| 2026-05-06 15:27 | 47.26322 | 11.90658 | 31558 ft | 373 kts | 193° |
| 2026-05-06 15:27 | 47.23755 | 11.90144 | 31943 ft | 372 kts | 194° |
| 2026-05-06 15:28 | 47.21188 | 11.89632 | 32248 ft | 370 kts | 193° |
| 2026-05-06 15:28 | 47.18637 | 11.89132 | 32594 ft | 369 kts | 193° |
| 2026-05-06 15:28 | 47.16094 | 11.88627 | 32937 ft | 369 kts | 193° |
| 2026-05-06 15:28 | 47.13562 | 11.88124 | 33314 ft | 367 kts | 193° |
| 2026-05-06 15:29 | 47.11028 | 11.87620 | 33671 ft | 367 kts | 193° |
| 2026-05-06 15:29 | 47.05970 | 11.86633 | 34079 ft | 367 kts | 193° |
| 2026-05-06 15:29 | 47.03432 | 11.86151 | 34218 ft | 368 kts | 193° |
| 2026-05-06 15:30 | 47.00917 | 11.85503 | 34450 ft | 366 kts | 197° |
| 2026-05-06 15:30 | 46.98422 | 11.84743 | 34691 ft | 367 kts | 197° |
| 2026-05-06 15:30 | 46.95953 | 11.83963 | 34923 ft | 369 kts | 197° |
| 2026-05-06 15:30 | 46.93445 | 11.83162 | 35123 ft | 370 kts | 197° |
| 2026-05-06 15:31 | 46.90925 | 11.82361 | 35366 ft | 371 kts | 197° |
| 2026-05-06 15:31 | 46.88395 | 11.81554 | 35588 ft | 373 kts | 196° |
| 2026-05-06 15:31 | 46.85861 | 11.80752 | 35820 ft | 373 kts | 196° |
| 2026-05-06 15:32 | 46.80768 | 11.79133 | 36273 ft | 376 kts | 196° |
| 2026-05-06 15:32 | 46.78211 | 11.78322 | 36403 ft | 377 kts | 196° |
| 2026-05-06 15:32 | 46.76480 | 11.77776 | 36533 ft | 377 kts | 196° |
| 2026-05-06 15:32 | 46.73946 | 11.76975 | 36732 ft | 377 kts | 196° |
| 2026-05-06 15:33 | 46.68830 | 11.75358 | 36792 ft | 377 kts | 196° |
| 2026-05-06 15:33 | 46.63674 | 11.73623 | 36863 ft | 381 kts | 202° |
| 2026-05-06 15:34 | 46.61269 | 11.72049 | 36872 ft | 380 kts | 213° |
| 2026-05-06 15:34 | 46.59158 | 11.69808 | 36879 ft | 374 kts | 223° |
| 2026-05-06 15:34 | 46.57435 | 11.66992 | 36883 ft | 374 kts | 234° |
| 2026-05-06 15:34 | 46.56152 | 11.63704 | 36853 ft | 375 kts | 244° |
| 2026-05-06 15:35 | 46.54287 | 11.56594 | 36880 ft | 377 kts | 248° |
| 2026-05-06 15:35 | 46.52488 | 11.49499 | 36883 ft | 376 kts | 244° |
| 2026-05-06 15:36 | 46.50168 | 11.42726 | 36884 ft | 374 kts | 241° |
| 2026-05-06 15:36 | 46.47697 | 11.36066 | 36878 ft | 373 kts | 235° |
| 2026-05-06 15:37 | 46.46053 | 11.33169 | 36901 ft | 373 kts | 224° |
| 2026-05-06 15:37 | 46.44025 | 11.30827 | 36900 ft | 375 kts | 213° |
| 2026-05-06 15:37 | 46.39125 | 11.28152 | 36900 ft | 382 kts | 195° |
| 2026-05-06 15:38 | 46.33873 | 11.26869 | 36966 ft | 382 kts | 193° |
| 2026-05-06 15:38 | 46.28637 | 11.25667 | 36963 ft | 379 kts | 196° |
| 2026-05-06 15:39 | 46.23504 | 11.23881 | 36971 ft | 379 kts | 198° |
| 2026-05-06 15:39 | 46.18396 | 11.22025 | 36940 ft | 378 kts | 198° |
| 2026-05-06 15:40 | 46.13296 | 11.20170 | 36951 ft | 378 kts | 198° |
| 2026-05-06 15:40 | 46.08199 | 11.18321 | 36626 ft | 379 kts | 198° |
| 2026-05-06 15:41 | 46.05657 | 11.17406 | 36098 ft | 375 kts | 198° |
| 2026-05-06 15:41 | 46.03145 | 11.16499 | 35607 ft | 369 kts | 198° |
| 2026-05-06 15:41 | 46.00678 | 11.15608 | 35140 ft | 363 kts | 198° |
| 2026-05-06 15:41 | 45.98247 | 11.14734 | 34647 ft | 357 kts | 198° |
| 2026-05-06 15:42 | 45.95854 | 11.13870 | 34185 ft | 354 kts | 199° |
| 2026-05-06 15:42 | 45.93465 | 11.13013 | 33671 ft | 354 kts | 199° |
| 2026-05-06 15:42 | 45.91069 | 11.12149 | 33007 ft | 356 kts | 198° |
| 2026-05-06 15:42 | 45.88654 | 11.11281 | 32325 ft | 358 kts | 198° |
| 2026-05-06 15:43 | 45.86257 | 11.10428 | 31723 ft | 360 kts | 199° |
| 2026-05-06 15:43 | 45.83789 | 11.09544 | 31121 ft | 362 kts | 199° |
| 2026-05-06 15:43 | 45.81339 | 11.08668 | 30559 ft | 363 kts | 199° |
| 2026-05-06 15:43 | 45.78919 | 11.07793 | 29997 ft | 364 kts | 199° |
| 2026-05-06 15:44 | 45.76415 | 11.06907 | 29361 ft | 367 kts | 199° |
| 2026-05-06 15:44 | 45.73974 | 11.06029 | 28702 ft | 367 kts | 199° |
| 2026-05-06 15:44 | 45.71506 | 11.05152 | 28064 ft | 364 kts | 199° |
| 2026-05-06 15:44 | 45.69060 | 11.04283 | 27412 ft | 360 kts | 199° |
| 2026-05-06 15:45 | 45.66592 | 11.03657 | 26764 ft | 363 kts | 189° |
| 2026-05-06 15:45 | 45.64056 | 11.03774 | 26129 ft | 369 kts | 179° |
| 2026-05-06 15:45 | 45.61534 | 11.04659 | 25433 ft | 378 kts | 167° |
| 2026-05-06 15:45 | 45.59133 | 11.06281 | 24715 ft | 386 kts | 156° |
| 2026-05-06 15:46 | 45.57066 | 11.08809 | 24010 ft | 402 kts | 136° |
| 2026-05-06 15:46 | 45.55687 | 11.12352 | 23312 ft | 417 kts | 115° |
| 2026-05-06 15:46 | 45.55014 | 11.16405 | 22521 ft | 421 kts | 107° |
| 2026-05-06 15:46 | 45.54391 | 11.20462 | 21741 ft | 415 kts | 110° |
| 2026-05-06 15:47 | 45.53539 | 11.24359 | 20966 ft | 408 kts | 116° |
| 2026-05-06 15:47 | 45.52473 | 11.28068 | 20224 ft | 402 kts | 120° |
| 2026-05-06 15:47 | 45.51292 | 11.31658 | 19429 ft | 392 kts | 124° |
| 2026-05-06 15:47 | 45.49894 | 11.34890 | 18693 ft | 376 kts | 128° |
| 2026-05-06 15:48 | 45.48520 | 11.38027 | 17954 ft | 371 kts | 128° |
| 2026-05-06 15:48 | 45.47124 | 11.41101 | 17157 ft | 368 kts | 128° |
| 2026-05-06 15:48 | 45.45749 | 11.44140 | 16377 ft | 362 kts | 128° |
| 2026-05-06 15:48 | 45.44383 | 11.47121 | 15623 ft | 356 kts | 129° |
| 2026-05-06 15:49 | 45.43007 | 11.50008 | 14897 ft | 350 kts | 130° |
| 2026-05-06 15:49 | 45.41513 | 11.52687 | 14176 ft | 341 kts | 137° |
| 2026-05-06 15:49 | 45.39950 | 11.55210 | 13428 ft | 337 kts | 136° |
| 2026-05-06 15:49 | 45.38404 | 11.57692 | 12641 ft | 333 kts | 136° |
| 2026-05-06 15:50 | 45.36863 | 11.60146 | 11874 ft | 332 kts | 134° |
| 2026-05-06 15:50 | 45.35743 | 11.63038 | 11114 ft | 338 kts | 112° |
| 2026-05-06 15:50 | 45.35182 | 11.66252 | 10405 ft | 332 kts | 104° |
| 2026-05-06 15:50 | 45.34871 | 11.69485 | 9668 ft | 327 kts | 99° |
| 2026-05-06 15:51 | 45.34707 | 11.72685 | 8868 ft | 323 kts | 93° |
| 2026-05-06 15:51 | 45.34812 | 11.75861 | 8081 ft | 319 kts | 89° |
| 2026-05-06 15:51 | 45.34893 | 11.78981 | 7327 ft | 313 kts | 95° |
| 2026-05-06 15:51 | 45.34532 | 11.81940 | 6603 ft | 305 kts | 107° |
| 2026-05-06 15:52 | 45.34277 | 11.84885 | 6174 ft | 284 kts | 94° |
| 2026-05-06 15:52 | 45.34275 | 11.87552 | 6038 ft | 256 kts | 92° |
| 2026-05-06 15:52 | 45.34264 | 11.89958 | 5966 ft | 241 kts | 96° |
| 2026-05-06 15:52 | 45.34154 | 11.92336 | 5970 ft | 242 kts | 97° |
| 2026-05-06 15:53 | 45.34025 | 11.94736 | 5992 ft | 246 kts | 97° |
| 2026-05-06 15:53 | 45.33890 | 11.97156 | 6010 ft | 245 kts | 97° |
| 2026-05-06 15:53 | 45.33758 | 11.99577 | 5783 ft | 248 kts | 97° |
| 2026-05-06 15:53 | 45.33620 | 12.02039 | 5406 ft | 250 kts | 97° |
| 2026-05-06 15:54 | 45.33487 | 12.04482 | 4901 ft | 246 kts | 96° |
| 2026-05-06 15:54 | 45.33356 | 12.06885 | 4379 ft | 243 kts | 96° |
| 2026-05-06 15:54 | 45.33230 | 12.09257 | 3866 ft | 238 kts | 95° |
| 2026-05-06 15:54 | 45.33201 | 12.11575 | 3372 ft | 233 kts | 85° |
| 2026-05-06 15:55 | 45.33801 | 12.13716 | 3114 ft | 235 kts | 52° |
| 2026-05-06 15:55 | 45.34985 | 12.15261 | 3058 ft | 229 kts | 38° |
| 2026-05-06 15:55 | 45.36180 | 12.16713 | 3000 ft | 222 kts | 44° |
| 2026-05-06 15:55 | 45.37268 | 12.18200 | 2974 ft | 212 kts | 43° |
| 2026-05-06 15:56 | 45.38358 | 12.19566 | 2899 ft | 208 kts | 42° |
| 2026-05-06 15:56 | 45.39457 | 12.20965 | 2554 ft | 215 kts | 44° |
| 2026-05-06 15:56 | 45.40562 | 12.22401 | 2304 ft | 214 kts | 44° |
| 2026-05-06 15:56 | 45.41647 | 12.23782 | 2092 ft | 204 kts | 44° |
| 2026-05-06 15:57 | 45.42672 | 12.25100 | 1894 ft | 193 kts | 45° |
| 2026-05-06 15:57 | 45.43637 | 12.26342 | 1608 ft | 183 kts | 44° |
| 2026-05-06 15:57 | 45.44555 | 12.27520 | 1371 ft | 172 kts | 45° |
| 2026-05-06 15:57 | 45.45420 | 12.28633 | 1101 ft | 164 kts | 44° |
| 2026-05-06 15:58 | 45.46246 | 12.29695 | 886 ft | 156 kts | 45° |
| 2026-05-06 15:58 | 45.47033 | 12.30709 | 670 ft | 150 kts | 44° |
| 2026-05-06 15:58 | 45.47801 | 12.31693 | 468 ft | 146 kts | 44° |
| 2026-05-06 15:58 | 45.48538 | 12.32648 | 254 ft | 142 kts | 46° |
| 2026-05-06 15:59 | 45.49266 | 12.33579 | 63 ft | 137 kts | 45° |
| 2026-05-06 15:59 | 45.49917 | 12.34425 | 13 ft | 110 kts | 39° |
| 2026-05-06 15:59 | 45.50349 | 12.34979 | 11 ft | 44 kts | 39° |
| 2026-05-06 15:59 | 45.50451 | 12.35044 | 11 ft | 7 kts | 15° |
| 2026-05-06 16:00 | 45.50503 | 12.35063 | 12 ft | 8 kts | 13° |
| 2026-05-06 16:00 | 45.50561 | 12.35076 | 12 ft | 8 kts | 6° |
| 2026-05-06 16:00 | 45.50569 | 12.35076 | 12 ft | 0 kts | 359° |
| 2026-05-06 16:01 | 45.50582 | 12.35071 | 11 ft | 4 kts | 344° |
| 2026-05-06 16:01 | 45.50611 | 12.35026 | 11 ft | 8 kts | 291° |
| 2026-05-06 16:01 | 45.50613 | 12.34933 | 12 ft | 12 kts | 267° |
| 2026-05-06 16:01 | 45.50608 | 12.34801 | 13 ft | 12 kts | 267° |
| 2026-05-06 16:02 | 45.50603 | 12.34646 | 14 ft | 21 kts | 267° |
| 2026-05-06 16:02 | 45.50596 | 12.34451 | 14 ft | 18 kts | 263° |
| 2026-05-06 16:02 | 45.50567 | 12.34324 | 14 ft | 11 kts | 309° |
| 2026-05-06 16:02 | 45.50615 | 12.34276 | 13 ft | 7 kts | 285° |
| 2026-05-06 16:03 | 45.50615 | 12.34223 | 13 ft | 4 kts | 269° |
| 2026-05-06 16:03 | 45.50614 | 12.34205 | 13 ft | 0 kts | 268° |